createdAt,value
2017-12-08T00:00:12.272Z,81.60
2017-12-08T00:02:38.581Z,81.00
2017-12-08T00:05:18.355Z,80.60
2017-12-08T00:07:44.648Z,80.50
2017-12-08T00:10:11.856Z,80.20
2017-12-08T00:12:38.158Z,80.20
2017-12-08T00:15:04.487Z,80.10
2017-12-08T00:17:30.772Z,79.90
2017-12-08T00:19:57.037Z,79.80
2017-12-08T00:22:23.329Z,79.80
2017-12-08T00:24:49.641Z,80.00
2017-12-08T00:27:16.671Z,80.50
2017-12-08T00:29:42.980Z,80.00
2017-12-08T00:32:09.257Z,80.50
2017-12-08T00:34:35.535Z,80.40
2017-12-08T00:37:01.834Z,80.80
2017-12-08T00:39:28.113Z,81.20
2017-12-08T00:41:54.420Z,81.10
2017-12-08T00:44:20.721Z,81.10
2017-12-08T00:46:47.357Z,80.80
2017-12-08T00:49:13.637Z,80.80
2017-12-08T00:51:39.941Z,81.10
2017-12-08T00:54:06.241Z,80.70
2017-12-08T00:56:32.556Z,82.00
2017-12-08T00:58:58.885Z,81.90
2017-12-08T01:01:25.160Z,81.90
2017-12-08T01:03:51.797Z,83.10
2017-12-08T01:06:18.108Z,83.10
2017-12-08T01:08:44.390Z,83.20
2017-12-08T01:11:10.669Z,83.80
2017-12-08T01:21:13.585Z,85.60
2017-12-08T01:23:39.892Z,85.50
2017-12-08T01:26:06.828Z,86.30
2017-12-08T01:28:33.149Z,85.80
2017-12-08T01:30:59.403Z,85.90
2017-12-08T01:33:25.705Z,85.80
2017-12-08T01:35:51.958Z,86.00
2017-12-08T01:38:18.220Z,86.50
2017-12-08T01:40:44.890Z,86.10
2017-12-08T01:43:11.248Z,86.10
2017-12-08T01:45:37.544Z,86.30
2017-12-08T01:48:03.850Z,86.60
2017-12-08T01:50:31.127Z,87.00
2017-12-08T01:52:57.468Z,87.40
2017-12-08T01:55:23.833Z,87.20
2017-12-08T01:57:50.157Z,86.90
2017-12-08T02:00:16.545Z,86.70
2017-12-08T02:02:42.846Z,87.10
2017-12-08T02:05:09.160Z,87.10
2017-12-08T02:07:35.511Z,86.70
2017-12-08T02:10:01.862Z,87.00
2017-12-08T02:12:29.105Z,86.90
2017-12-08T02:14:55.825Z,87.30
2017-12-08T02:17:23.369Z,87.30
2017-12-08T02:19:49.713Z,86.70
2017-12-08T02:22:16.045Z,86.90
2017-12-08T02:24:42.377Z,86.70
2017-12-08T02:27:08.712Z,86.40
2017-12-08T02:29:35.450Z,86.90
2017-12-08T02:32:02.501Z,86.80
2017-12-08T02:34:30.132Z,87.20
2017-12-08T02:36:56.456Z,86.80
2017-12-08T02:39:22.797Z,86.50
2017-12-08T02:41:49.136Z,86.50
2017-12-08T02:44:15.464Z,86.70
2017-12-08T02:46:41.800Z,87.60
2017-12-08T02:49:08.128Z,87.10
2017-12-08T02:51:34.523Z,87.40
2017-12-08T02:54:00.862Z,86.80
2017-12-08T02:56:27.188Z,87.10
2017-12-08T02:58:53.504Z,87.20
2017-12-08T03:01:19.836Z,87.50
2017-12-08T03:03:46.165Z,87.20
2017-12-08T03:06:12.564Z,87.00
2017-12-08T03:08:38.865Z,87.20
2017-12-08T03:11:05.165Z,87.00
2017-12-08T03:13:31.509Z,87.20
2017-12-08T03:15:57.856Z,87.80
2017-12-08T03:18:24.192Z,88.20
2017-12-08T03:20:50.552Z,88.90
2017-12-08T03:23:17.257Z,89.40
2017-12-08T03:25:43.593Z,89.40
2017-12-08T03:28:09.961Z,89.50
2017-12-08T03:30:36.301Z,89.30
2017-12-08T03:33:03.308Z,89.50
2017-12-08T03:35:29.649Z,89.60
2017-12-08T03:37:56.329Z,89.60
2017-12-08T03:40:22.730Z,89.70
2017-12-08T03:42:49.445Z,90.30
2017-12-08T03:45:16.431Z,90.30
2017-12-08T03:47:42.741Z,90.80
2017-12-08T03:50:09.049Z,90.30
2017-12-08T03:52:35.393Z,90.00
2017-12-08T03:55:02.117Z,89.40
2017-12-08T03:57:28.445Z,89.40
2017-12-08T03:59:54.805Z,89.40
2017-12-08T04:02:21.495Z,89.10
2017-12-08T04:04:47.832Z,89.10
2017-12-08T04:07:14.144Z,89.70
2017-12-08T04:09:40.475Z,89.70
2017-12-08T04:12:06.809Z,89.70
2017-12-08T04:14:33.668Z,89.70
2017-12-08T04:16:59.969Z,89.10
2017-12-08T04:19:26.280Z,89.20
2017-12-08T04:21:52.616Z,89.00
2017-12-08T04:24:18.922Z,89.10
2017-12-08T04:26:45.618Z,89.60
2017-12-08T04:29:11.937Z,89.60
2017-12-08T04:31:38.286Z,90.20
2017-12-08T04:34:04.648Z,90.60
2017-12-08T04:36:31.340Z,91.30
2017-12-08T04:38:57.637Z,91.30
2017-12-08T04:41:23.972Z,91.30
2017-12-08T04:43:50.305Z,91.50
2017-12-08T04:46:16.693Z,91.50
2017-12-08T04:48:43.038Z,92.00
2017-12-08T04:51:09.762Z,91.90
2017-12-08T04:53:36.094Z,91.90
2017-12-08T04:56:02.406Z,91.70
2017-12-08T04:58:28.773Z,92.20
2017-12-08T05:00:55.467Z,91.40
2017-12-08T05:03:21.825Z,91.40
2017-12-08T05:05:48.142Z,91.10
2017-12-08T05:08:14.496Z,91.40
2017-12-08T05:10:40.856Z,91.10
2017-12-08T05:13:07.157Z,91.00
2017-12-08T05:15:33.521Z,91.00
2017-12-08T05:17:59.824Z,91.20
2017-12-08T05:20:26.532Z,91.60
2017-12-08T05:22:52.868Z,91.60
2017-12-08T05:25:19.194Z,91.90
2017-12-08T05:27:45.541Z,91.80
2017-12-08T05:30:11.873Z,91.30
2017-12-08T05:32:38.794Z,91.00
2017-12-08T05:35:05.157Z,91.50
2017-12-08T05:37:32.765Z,91.80
2017-12-08T05:39:59.095Z,91.80
2017-12-08T05:42:25.397Z,92.30
2017-12-08T05:44:51.737Z,92.60
2017-12-08T05:47:18.068Z,92.90
2017-12-08T05:49:44.373Z,92.70
2017-12-08T05:52:11.060Z,92.10
2017-12-08T05:54:37.409Z,92.10
2017-12-08T05:57:03.741Z,91.60
2017-12-08T05:59:30.097Z,92.30
2017-12-08T06:01:56.461Z,92.70
2017-12-08T06:04:22.800Z,93.00
2017-12-08T06:06:49.138Z,93.00
2017-12-08T06:09:15.473Z,92.60
2017-12-08T06:11:41.816Z,92.60
2017-12-08T06:14:08.154Z,92.40
2017-12-08T06:16:34.752Z,92.50
2017-12-08T06:19:01.088Z,92.00
2017-12-08T06:21:27.409Z,91.20
2017-12-08T06:23:53.758Z,91.60
2017-12-08T06:26:20.105Z,91.70
2017-12-08T06:28:46.438Z,92.00
2017-12-08T06:31:12.807Z,91.50
2017-12-08T06:33:39.149Z,91.60
2017-12-08T06:36:05.825Z,91.60
2017-12-08T06:38:32.130Z,91.60
2017-12-08T06:40:58.464Z,91.50
2017-12-08T06:43:24.872Z,91.20
2017-12-08T06:45:51.549Z,91.10
2017-12-08T06:48:17.869Z,91.10
2017-12-08T06:50:44.195Z,91.00
2017-12-08T06:53:10.494Z,90.70
2017-12-08T06:55:36.846Z,90.70
2017-12-08T06:58:03.188Z,90.90
2017-12-08T07:00:29.517Z,90.40
2017-12-08T07:02:55.844Z,90.50
2017-12-08T07:05:22.165Z,90.40
2017-12-08T07:07:48.528Z,86.10
2017-12-08T07:10:14.860Z,85.00
2017-12-08T07:12:41.206Z,86.60
2017-12-08T07:15:07.592Z,85.90
2017-12-08T07:17:35.163Z,86.10
2017-12-08T07:20:01.505Z,86.20
2017-12-08T07:22:28.270Z,86.50
2017-12-08T07:24:54.573Z,86.00
2017-12-08T07:27:20.893Z,86.00
2017-12-08T07:29:47.238Z,86.50
2017-12-08T07:32:13.533Z,86.50
2017-12-08T07:34:40.264Z,85.70
2017-12-08T07:37:06.613Z,85.60
2017-12-08T07:39:32.913Z,86.00
2017-12-08T07:41:59.254Z,85.70
2017-12-08T07:44:26.582Z,84.20
2017-12-08T07:46:52.908Z,84.20
2017-12-08T07:49:19.292Z,85.10
2017-12-08T07:51:45.730Z,84.30
2017-12-08T07:54:12.043Z,84.50
2017-12-08T07:56:38.715Z,84.30
2017-12-08T07:59:05.030Z,84.30
2017-12-08T08:01:31.378Z,83.20
2017-12-08T08:03:58.162Z,82.20
2017-12-08T08:06:27.706Z,80.70
2017-12-08T08:08:53.994Z,81.00
2017-12-08T08:11:20.326Z,81.30
2017-12-08T08:13:46.656Z,81.60
2017-12-08T08:16:12.992Z,79.20
2017-12-08T08:18:39.333Z,80.10
2017-12-08T08:21:05.654Z,79.10
2017-12-08T08:23:32.364Z,79.70
2017-12-08T08:25:58.726Z,81.20
2017-12-08T08:28:25.133Z,82.00
2017-12-08T08:30:51.478Z,82.80
2017-12-08T08:33:17.816Z,82.30
2017-12-08T08:35:44.157Z,81.90
2017-12-08T08:38:10.472Z,81.60
2017-12-08T08:40:37.162Z,81.30
2017-12-08T08:43:03.513Z,81.40
2017-12-08T08:45:29.844Z,81.80
2017-12-08T08:47:56.182Z,82.00
2017-12-08T08:50:23.052Z,81.70
2017-12-08T08:52:49.431Z,81.20
2017-12-08T08:55:15.778Z,81.40
2017-12-08T08:57:42.477Z,81.20
2017-12-08T09:00:08.810Z,81.20
2017-12-08T09:02:35.145Z,80.90
2017-12-08T09:05:01.472Z,81.20
2017-12-08T09:07:27.805Z,81.70
2017-12-08T09:09:54.155Z,80.70
2017-12-08T09:12:20.476Z,82.40
2017-12-08T09:14:47.196Z,82.30
2017-12-08T09:17:13.900Z,81.70
2017-12-08T09:19:40.277Z,81.70
2017-12-08T09:22:06.616Z,80.80
2017-12-08T09:24:32.913Z,80.00
2017-12-08T09:26:59.626Z,79.70
2017-12-08T09:29:25.960Z,79.70
2017-12-08T09:31:52.323Z,79.50
2017-12-08T09:34:19.007Z,81.00
2017-12-08T09:36:45.342Z,80.90
2017-12-08T09:39:11.682Z,81.00
2017-12-08T09:41:37.988Z,80.50
2017-12-08T09:44:04.298Z,79.00
2017-12-08T09:46:30.616Z,80.20
2017-12-08T09:48:57.318Z,80.40
2017-12-08T09:51:23.663Z,80.30
2017-12-08T09:53:49.948Z,81.30
2017-12-08T09:56:16.283Z,80.50
2017-12-08T09:58:42.606Z,80.10
2017-12-08T10:01:08.977Z,79.70
2017-12-08T10:03:36.248Z,79.00
2017-12-08T10:06:02.977Z,80.00
2017-12-08T10:08:29.302Z,80.10
2017-12-08T10:10:55.641Z,80.40
2017-12-08T10:13:22.002Z,78.30
2017-12-08T10:15:48.307Z,78.30
2017-12-08T10:18:14.662Z,78.60
2017-12-08T10:20:41.022Z,79.30
2017-12-08T10:23:08.812Z,78.10
2017-12-08T10:25:35.201Z,78.70
2017-12-08T10:28:01.527Z,78.80
2017-12-08T10:30:27.911Z,79.10
2017-12-08T10:32:54.246Z,78.50
2017-12-08T10:35:20.561Z,77.20
2017-12-08T10:37:46.982Z,78.60
2017-12-08T10:40:13.330Z,78.60
2017-12-08T10:42:39.684Z,77.90
2017-12-08T10:45:06.017Z,77.50
2017-12-08T10:47:32.733Z,75.20
2017-12-08T10:49:59.885Z,75.20
2017-12-08T10:52:26.274Z,75.70
2017-12-08T10:54:53.624Z,77.00
2017-12-08T10:57:19.966Z,74.80
2017-12-08T10:59:46.310Z,73.60
2017-12-08T11:02:12.631Z,74.00
2017-12-08T11:04:39.028Z,72.00
2017-12-08T11:07:05.861Z,72.60
2017-12-08T11:09:32.162Z,71.60
2017-12-08T11:11:58.494Z,71.90
2017-12-08T11:14:24.855Z,71.70
2017-12-08T11:16:51.548Z,66.60
2017-12-08T11:19:17.861Z,66.60
2017-12-08T11:21:44.176Z,64.10
2017-12-08T11:24:10.497Z,65.30
2017-12-08T11:26:36.886Z,68.00
2017-12-08T11:29:03.245Z,68.50
2017-12-08T11:31:30.361Z,67.00
2017-12-08T11:33:56.686Z,67.00
2017-12-08T11:36:23.802Z,68.70
2017-12-08T11:38:50.144Z,67.70
2017-12-08T11:41:16.502Z,69.60
2017-12-08T11:43:42.851Z,67.80
2017-12-08T11:46:09.565Z,70.00
2017-12-08T11:48:35.948Z,70.00
2017-12-08T11:51:02.271Z,69.40
2017-12-08T11:53:28.588Z,68.40
2017-12-08T11:55:55.279Z,70.30
2017-12-08T11:58:21.608Z,70.30
2017-12-08T12:00:48.047Z,69.00
2017-12-08T12:03:15.153Z,69.00
2017-12-08T12:05:41.833Z,67.70
2017-12-08T12:08:08.152Z,67.80
2017-12-08T12:10:34.521Z,68.30
2017-12-08T12:13:00.820Z,67.60
2017-12-08T12:15:27.144Z,67.00
2017-12-08T12:17:53.487Z,65.50
2017-12-08T12:20:19.828Z,66.90
2017-12-08T12:22:46.146Z,66.50
2017-12-08T12:25:12.465Z,64.90
2017-12-08T12:27:38.814Z,65.70
2017-12-08T12:30:05.136Z,66.60
2017-12-08T12:32:31.501Z,67.10
2017-12-08T12:34:58.182Z,68.50
2017-12-08T12:37:24.508Z,68.50
2017-12-08T12:39:50.830Z,69.20
2017-12-08T12:42:17.122Z,69.50
2017-12-08T12:44:43.445Z,70.70
2017-12-08T12:47:09.781Z,71.10
2017-12-08T12:49:36.125Z,71.00
2017-12-08T12:52:02.870Z,72.40
2017-12-08T12:54:29.278Z,72.30
2017-12-08T12:56:55.625Z,73.30
2017-12-08T12:59:21.956Z,70.50
2017-12-08T13:01:48.277Z,69.10
2017-12-08T13:04:14.626Z,70.00
2017-12-08T13:06:40.937Z,69.40
2017-12-08T13:09:07.277Z,71.00
2017-12-08T13:11:33.632Z,71.70
2017-12-08T13:13:59.969Z,71.90
2017-12-08T13:16:26.281Z,72.70
2017-12-08T13:18:52.960Z,71.50
2017-12-08T13:21:19.888Z,71.50
2017-12-08T13:23:46.140Z,71.10
2017-12-08T13:26:13.278Z,71.40
2017-12-08T13:28:39.536Z,71.00
2017-12-08T13:31:06.731Z,71.10
2017-12-08T13:33:33.351Z,72.20
2017-12-08T13:35:59.561Z,72.20
2017-12-08T13:38:25.781Z,70.60
2017-12-08T13:40:52.011Z,70.90
2017-12-08T13:43:18.241Z,71.10
2017-12-08T13:45:44.457Z,71.40
2017-12-08T13:48:12.497Z,72.40
2017-12-08T13:50:38.752Z,72.30
2017-12-08T13:53:17.265Z,73.80
2017-12-08T13:58:40.383Z,82.10
2017-12-08T14:01:06.648Z,84.40
2017-12-08T14:03:32.954Z,83.90
2017-12-08T14:05:59.616Z,83.60
2017-12-08T14:08:25.864Z,83.60
2017-12-08T14:10:52.110Z,83.10
2017-12-08T14:13:18.380Z,82.90
2017-12-08T14:15:44.684Z,82.90
2017-12-08T14:18:10.980Z,83.00
2017-12-08T14:20:37.227Z,80.80
2017-12-08T14:23:03.761Z,78.50
2017-12-08T14:25:30.021Z,79.50
2017-12-08T14:27:56.257Z,78.40
2017-12-08T14:30:22.945Z,78.90
2017-12-08T14:32:49.168Z,78.90
2017-12-08T14:35:15.410Z,78.50
2017-12-08T14:37:41.670Z,78.30
2017-12-08T14:40:07.975Z,78.70
2017-12-08T14:42:34.216Z,78.10
2017-12-08T14:45:00.468Z,75.90
2017-12-08T14:47:26.716Z,76.80
2017-12-08T14:49:52.957Z,77.30
2017-12-08T14:52:20.144Z,76.70
2017-12-08T14:54:46.407Z,78.00
2017-12-08T14:57:12.970Z,76.40
2017-12-08T14:59:39.195Z,76.40
2017-12-08T15:02:05.430Z,74.90
2017-12-08T15:04:31.651Z,74.50
2017-12-08T15:06:57.859Z,76.50
2017-12-08T15:09:24.560Z,75.80
2017-12-08T15:11:50.822Z,75.90
2017-12-08T15:14:17.458Z,74.10
2017-12-08T15:16:44.102Z,73.40
2017-12-08T15:19:10.735Z,74.30
2017-12-08T15:21:37.360Z,73.40
2017-12-08T15:24:03.589Z,73.40
2017-12-08T15:26:29.859Z,72.60
2017-12-08T15:28:56.069Z,73.80
2017-12-08T15:31:22.318Z,73.80
2017-12-08T15:33:48.610Z,74.40
2017-12-08T15:36:14.855Z,72.10
2017-12-08T15:38:41.135Z,73.20
2017-12-08T15:41:07.398Z,72.00
2017-12-08T15:43:34.016Z,72.50
2017-12-08T15:46:00.265Z,72.50
2017-12-08T15:48:26.915Z,71.80
2017-12-08T15:50:53.566Z,71.30
2017-12-08T15:53:19.815Z,71.30
2017-12-08T15:55:47.090Z,71.60
2017-12-08T15:58:13.341Z,72.60
2017-12-08T16:00:39.593Z,72.40
2017-12-08T16:03:05.877Z,73.00
2017-12-08T16:05:32.148Z,72.20
2017-12-08T16:07:58.792Z,72.50
2017-12-08T16:10:25.082Z,72.50
2017-12-08T16:12:51.333Z,72.30
2017-12-08T16:15:17.628Z,71.30
2017-12-08T16:17:43.898Z,72.30
2017-12-08T16:20:10.586Z,71.90
2017-12-08T16:22:36.872Z,71.90
2017-12-08T16:25:03.159Z,71.90
2017-12-08T16:27:29.414Z,70.40
2017-12-08T16:29:56.051Z,70.30
2017-12-08T16:32:22.339Z,70.30
2017-12-08T16:34:48.583Z,70.10
2017-12-08T16:37:14.857Z,71.10
2017-12-08T16:39:41.142Z,70.30
2017-12-08T16:42:07.410Z,70.80
2017-12-08T16:44:34.050Z,69.30
2017-12-08T16:47:00.319Z,69.40
2017-12-08T16:49:26.597Z,71.40
2017-12-08T16:51:53.272Z,70.00
2017-12-08T16:54:20.413Z,70.00
2017-12-08T16:56:46.662Z,70.10
2017-12-08T16:59:12.986Z,71.30
2017-12-08T17:01:39.224Z,70.10
2017-12-08T17:04:05.458Z,72.10
2017-12-08T17:06:31.707Z,70.80
2017-12-08T17:08:57.925Z,71.40
2017-12-08T17:11:24.171Z,71.50
2017-12-08T17:13:50.819Z,72.00
2017-12-08T17:16:17.474Z,71.00
2017-12-08T17:18:43.778Z,71.00
2017-12-08T17:21:10.020Z,70.40
2017-12-08T17:23:36.941Z,70.70
2017-12-08T17:26:03.196Z,69.40
2017-12-08T17:28:29.826Z,71.30
2017-12-08T17:30:56.470Z,70.30
2017-12-08T17:33:23.105Z,70.00
2017-12-08T17:35:49.820Z,71.70
2017-12-08T17:38:16.126Z,71.70
2017-12-08T17:40:42.358Z,71.30
2017-12-08T17:43:08.597Z,70.30
2017-12-08T17:45:34.818Z,70.60
2017-12-08T17:48:01.093Z,71.10
2017-12-08T17:50:27.730Z,71.30
2017-12-08T17:52:54.334Z,72.20
2017-12-08T17:55:20.590Z,72.20
2017-12-08T17:57:47.205Z,72.40
2017-12-08T18:00:13.481Z,72.40
2017-12-08T18:02:39.742Z,73.10
2017-12-08T18:05:06.076Z,73.40
2017-12-08T18:07:32.303Z,74.00
2017-12-08T18:09:58.612Z,74.00
2017-12-08T18:12:24.923Z,74.70
2017-12-08T18:14:51.278Z,74.20
2017-12-08T18:17:17.590Z,74.60
2017-12-08T18:19:43.833Z,75.30
2017-12-08T18:22:10.111Z,76.30
2017-12-08T18:24:36.773Z,77.10
2017-12-08T18:27:03.028Z,77.10
2017-12-08T18:29:29.326Z,76.30
2017-12-08T18:31:55.576Z,76.10
2017-12-08T18:34:21.912Z,76.30
2017-12-08T18:36:48.162Z,76.30
2017-12-08T18:39:14.469Z,76.20
2017-12-08T18:41:40.765Z,75.90
2017-12-08T18:44:07.395Z,75.40
2017-12-08T18:46:33.665Z,75.40
2017-12-08T18:48:59.923Z,74.00
2017-12-08T18:51:26.223Z,74.80
2017-12-08T18:53:52.479Z,75.40
2017-12-08T18:56:18.873Z,75.50
2017-12-08T18:58:45.169Z,75.90
2017-12-08T19:01:11.822Z,74.60
2017-12-08T19:03:38.521Z,75.10
2017-12-08T19:06:04.847Z,75.10
2017-12-08T19:08:31.087Z,75.00
2017-12-08T19:10:57.390Z,75.10
2017-12-08T19:13:23.658Z,75.60
2017-12-08T19:15:49.977Z,75.80
2017-12-08T19:18:16.278Z,76.50
2017-12-08T19:20:42.564Z,76.60
2017-12-08T19:23:09.770Z,75.50
2017-12-08T19:25:36.071Z,75.50
2017-12-08T19:28:02.395Z,75.10
2017-12-08T19:30:28.709Z,75.10
2017-12-08T19:32:55.377Z,74.80
2017-12-08T19:35:22.514Z,74.80
2017-12-08T19:37:48.802Z,73.90
2017-12-08T19:40:15.088Z,73.10
2017-12-08T19:42:42.167Z,72.60
2017-12-08T19:45:08.490Z,73.30
2017-12-08T19:47:34.786Z,73.20
2017-12-08T19:50:01.059Z,74.10
2017-12-08T19:52:27.344Z,73.70
2017-12-08T19:54:54.551Z,74.10
2017-12-08T19:57:22.430Z,73.90
2017-12-08T19:59:48.761Z,73.20
2017-12-08T20:02:16.178Z,74.30
2017-12-08T20:04:42.449Z,74.30
2017-12-08T20:09:40.608Z,75.00
2017-12-08T20:12:06.934Z,75.80
2017-12-08T20:14:33.231Z,75.20
2017-12-08T20:16:59.488Z,76.30
2017-12-08T20:19:25.745Z,76.60
2017-12-08T20:21:52.405Z,76.50
2017-12-08T20:24:18.696Z,76.50
2017-12-08T20:26:45.003Z,76.50
2017-12-08T20:29:11.304Z,76.40
2017-12-08T20:31:37.672Z,76.60
2017-12-08T20:34:03.990Z,76.40
2017-12-08T20:36:30.258Z,76.90
2017-12-08T20:38:57.008Z,76.20
2017-12-08T20:41:23.674Z,76.70
2017-12-08T20:43:49.932Z,76.70
2017-12-08T20:46:16.184Z,77.70
2017-12-08T20:48:42.498Z,78.40
2017-12-08T20:51:08.774Z,78.60
2017-12-08T20:53:35.081Z,79.10
2017-12-08T20:56:01.363Z,79.50
2017-12-08T20:58:27.599Z,80.00
2017-12-08T21:00:55.737Z,80.10
2017-12-08T21:03:22.002Z,80.00
2017-12-08T21:05:48.332Z,80.00
2017-12-08T21:08:14.622Z,79.70
2017-12-08T21:10:41.303Z,77.90
2017-12-08T21:13:07.600Z,77.90
2017-12-08T21:15:33.909Z,78.10
2017-12-08T21:18:01.474Z,77.20
2017-12-08T21:20:27.770Z,77.20
2017-12-08T21:22:54.072Z,77.10
2017-12-08T21:25:20.978Z,76.20
2017-12-08T21:27:47.288Z,76.70
2017-12-08T21:30:13.627Z,76.50
2017-12-08T21:32:39.897Z,76.30
2017-12-08T21:35:06.180Z,77.20
2017-12-08T21:37:32.464Z,77.50
2017-12-08T21:39:59.340Z,78.30
2017-12-08T21:42:25.592Z,79.40
2017-12-08T21:44:51.862Z,81.70
2017-12-08T21:47:18.124Z,83.40
2017-12-08T21:49:44.417Z,84.40
2017-12-08T21:52:10.683Z,85.20
2017-12-08T21:54:36.920Z,85.10
2017-12-08T21:57:03.171Z,84.80
2017-12-08T21:59:29.505Z,85.50
2017-12-08T22:01:55.776Z,85.20
2017-12-08T22:04:22.106Z,84.50
2017-12-08T22:06:48.361Z,84.70
2017-12-08T22:09:14.644Z,84.60
2017-12-08T22:11:40.953Z,83.30
2017-12-08T22:14:07.281Z,82.90
2017-12-08T22:16:34.358Z,81.60
2017-12-08T22:19:00.679Z,81.10
2017-12-08T22:21:26.956Z,80.20
2017-12-08T22:23:53.247Z,80.10
2017-12-08T22:26:19.516Z,78.20
2017-12-08T22:28:45.802Z,79.20
2017-12-08T22:31:12.091Z,79.50
2017-12-08T22:33:38.718Z,78.60
2017-12-08T22:36:05.026Z,78.50
2017-12-08T22:38:31.251Z,77.40
2017-12-08T22:40:57.518Z,77.90
2017-12-08T22:43:25.030Z,78.70
2017-12-08T22:45:51.284Z,78.70
2017-12-08T22:48:17.645Z,78.80
2017-12-08T22:50:44.309Z,77.00
2017-12-08T22:53:10.675Z,77.00
2017-12-08T22:55:37.278Z,77.00
2017-12-08T22:58:03.518Z,78.20
2017-12-08T23:00:29.763Z,78.00
2017-12-08T23:02:56.045Z,77.60
2017-12-08T23:05:22.325Z,77.40
2017-12-08T23:07:48.584Z,78.40
2017-12-08T23:10:14.870Z,78.40
2017-12-08T23:12:41.122Z,78.20
2017-12-08T23:15:07.372Z,77.70
2017-12-08T23:17:33.980Z,76.90
2017-12-08T23:20:00.214Z,76.90
2017-12-08T23:22:26.484Z,77.30
2017-12-08T23:24:52.745Z,77.40
2017-12-08T23:27:19.012Z,77.00
2017-12-08T23:29:45.235Z,76.80
2017-12-08T23:32:11.514Z,77.30
2017-12-08T23:34:37.758Z,77.90
2017-12-08T23:37:04.034Z,78.50
2017-12-08T23:39:30.633Z,78.10
2017-12-08T23:41:56.837Z,78.20
2017-12-08T23:44:23.122Z,78.70
2017-12-08T23:46:49.724Z,80.30
2017-12-08T23:49:15.957Z,80.30
2017-12-08T23:51:42.183Z,78.40
2017-12-08T23:54:08.472Z,78.80
2017-12-08T23:56:34.769Z,79.10
2017-12-08T23:59:00.990Z,77.90
